Grande Portogallo — IBZW — position and weather

sailwx.info

Track history (hours):
 
Tides and Currents Weather Stations Pressure Air Temp Water Temp Dewpoint Dewpoint Depression Visibility Wind Speed Wind Dir Waves Ship Positions

Grande Portogallo

Last reported at 2016-Apr-29 04:33 UTC. Time now 2016-Apr-29 06:06 UTC.
Position N 51°16' E 004°13'.

Length 176 m; draft 8.7 m.

Type: Cargo ship. MMSI: 247065500.

Date/timePositionNaut miles runAvg speedWind from/ knotsBaromVisibWave heightAir tempDewpointWater temp
2016-Apr-29 04:33N 51°16' E 004°13'0 0.0
2016-Apr-29 03:33N 51°16' E 004°13'0 0.0
2016-Apr-29 02:33N 51°16' E 004°13'0 0.0
2016-Apr-29 01:33N 51°16' E 004°13'0 0.0
2016-Apr-29 00:30N 51°16' E 004°13'0 0.0
2016-Apr-28 23:33N 51°16' E 004°13'0 0.0
2016-Apr-28 22:33N 51°16' E 004°13'0 0.0
2016-Apr-28 21:30N 51°16' E 004°13'0 0.0
2016-Apr-28 20:33N 51°16' E 004°13'0 0.0
2016-Apr-28 19:33N 51°16' E 004°13'0 0.0
2016-Apr-28 18:33N 51°16' E 004°13'0 0.0
2016-Apr-28 17:33N 51°16' E 004°13'0 0.0
2016-Apr-28 16:33N 51°16' E 004°13'0 0.0
2016-Apr-28 15:33N 51°16' E 004°13'0 0.0
2016-Apr-28 14:33N 51°16' E 004°13'0 0.0
2016-Apr-28 13:33N 51°16' E 004°13'0 0.0
2016-Apr-28 12:33N 51°16' E 004°13'0 0.0
2016-Apr-28 11:33N 51°16' E 004°13'0 0.0
2016-Apr-28 10:30N 51°16' E 004°13'1 0.9
2016-Apr-28 09:33N 51°16' E 004°14'2 1.8
2016-Apr-28 08:33N 51°16' E 004°17'3 2.6
2016-Apr-28 07:34N 51°18' E 004°16'9 8.6
2016-Apr-28 06:33N 51°22' E 004°04'9 9.1
2016-Apr-28 05:33N 51°21' E 003°50'1110.8
2016-Apr-28 04:33N 51°26' E 003°35'1111.3
2016-Apr-28 03:33N 51°35' E 003°24'1110.3
2016-Apr-28 02:31N 51°43' E 003°13'7 1.5
2016-Apr-27 21:32N 51°46' E 003°02'94 8.3
2016-Apr-27 10:14N 53°07' E 004°19'3312.4
2016-Apr-27 07:32N 53°32' E 004°56'1313.1
2016-Apr-27 06:33N 53°37' E 005°15'1414.3
2016-Apr-27 05:33N 53°42' E 005°38'1514.9
2016-Apr-27 04:33N 53°47' E 006°02'1514.8
2016-Apr-27 03:33N 53°51' E 006°26'1514.7
2016-Apr-27 02:33N 53°54' E 006°50'1414.0
2016-Apr-27 01:33N 53°58' E 007°13'1413.5
2016-Apr-27 00:33N 54°01' E 007°36'1313.1
2016-Apr-26 23:33N 54°01' E 007°58'1312.8
2016-Apr-26 22:33N 53°60' E 008°20'1414.0
2016-Apr-26 21:33N 53°54' E 008°41'1313.5
2016-Apr-26 20:33N 53°52' E 009°04'1312.8
2016-Apr-26 19:34N 53°47' E 009°24'1515.1
2016-Apr-26 18:33N 53°34' E 009°39'1110.5
2016-Apr-26 17:33N 53°33' E 009°56'2 2.3
2016-Apr-26 16:32N 53°32' E 009°60'0 0.0
2016-Apr-26 15:32N 53°32' E 009°60'0 0.0
2016-Apr-26 14:32N 53°32' E 009°60'0 0.0
2016-Apr-26 13:32N 53°32' E 009°60'0 0.0
2016-Apr-26 12:32N 53°32' E 009°60'0 0.0
2016-Apr-26 11:32N 53°32' E 009°60'0 0.0
2016-Apr-26 10:32N 53°32' E 009°60'0 0.0
2016-Apr-26 09:32N 53°32' E 009°60'0 0.0
2016-Apr-26 08:32N 53°32' E 009°60'0 0.0
2016-Apr-26 07:32N 53°32' E 009°60'0 0.0
2016-Apr-26 06:32N 53°32' E 009°60'0 0.0
2016-Apr-26 05:32N 53°32' E 009°60'0 0.0
2016-Apr-26 04:32N 53°32' E 009°60'0 0.0
2016-Apr-26 03:32N 53°32' E 009°60'0 0.0
2016-Apr-26 02:32N 53°32' E 009°60'0 0.0
2016-Apr-26 01:32N 53°32' E 009°60'0 0.0
2016-Apr-26 00:32N 53°32' E 009°60'0 0.0
2016-Apr-25 23:32N 53°32' E 009°60'1 0.9
2016-Apr-25 22:33N 53°32' E 009°59'10 9.8
2016-Apr-25 21:33N 53°34' E 009°42'1111.0
2016-Apr-25 20:34N 53°42' E 009°30'1313.0
2016-Apr-25 19:33N 53°52' E 009°16'10 9.9
2016-Apr-25 18:34N 53°51' E 008°59'1111.0
2016-Apr-25 17:33N 53°54' E 008°41'1212.3
2016-Apr-25 16:33N 53°59' E 008°23'1413.8
2016-Apr-25 15:33N 53°59' E 007°59'1514.7
2016-Apr-25 14:33N 53°55' E 007°35'1514.9
2016-Apr-25 13:33N 53°52' E 007°10'1514.9
2016-Apr-25 12:33N 53°48' E 006°46'1515.5
2016-Apr-25 11:33N 53°44' E 006°21'1615.8
2016-Apr-25 10:33N 53°40' E 005°55'1616.1
2016-Apr-25 09:33N 53°35' E 005°29'1716.2
2016-Apr-25 08:31N 53°30' E 005°02'3015.3
2016-Apr-25 06:33N 53°08' E 004°28'1817.1
2016-Apr-25 05:31N 52°52' E 004°15'3517.5
2016-Apr-25 03:31N 52°25' E 003°38'2117.2
2016-Apr-25 02:19N 52°05' E 003°29'1315.2
2016-Apr-25 01:30N 51°53' E 003°22'1111.6
2016-Apr-25 00:32N 51°43' E 003°17'1414.5
2016-Apr-24 23:34N 51°30' E 003°28'9 8.8
2016-Apr-24 22:33N 51°28' E 003°41'0 0.0
2016-Apr-24 21:34N 51°28' E 003°41'0 0.0
2016-Apr-24 20:27N 51°28' E 003°41'0 0.0
2016-Apr-24 19:34N 51°28' E 003°41'0 0.0
2016-Apr-24 18:34N 51°28' E 003°41'0 0.0
2016-Apr-24 17:34N 51°28' E 003°41'0 0.0
2016-Apr-24 16:34N 51°28' E 003°41'0 0.0
2016-Apr-24 15:34N 51°28' E 003°41'0 0.0
2016-Apr-24 14:34N 51°28' E 003°41'0 0.0
2016-Apr-24 13:33N 51°28' E 003°41'0 0.0
2016-Apr-24 12:33N 51°28' E 003°41'0 0.0
2016-Apr-24 11:34N 51°28' E 003°41'0 0.0
2016-Apr-24 10:34N 51°28' E 003°41'0 0.0
2016-Apr-24 09:34N 51°28' E 003°41'0 0.0
2016-Apr-24 08:34N 51°28' E 003°41'3 3.0
2016-Apr-24 07:33N 51°26' E 003°37'1312.9
2016-Apr-24 06:33N 51°25' E 003°17'1514.6
2016-Apr-24 05:31N 51°25' E 002°52'1212.2
2016-Apr-24 04:30N 51°22' E 002°33'1212.5
2016-Apr-24 03:34N 51°17' E 002°16'1312.9
2016-Apr-24 02:34N 51°11' E 001°58'1313.3
2016-Apr-24 01:33N 51°02' E 001°42'6115.3
2016-Apr-23 21:33N 50°25' E 000°25'1716.8
2016-Apr-23 20:33N 50°21' W 000°00'1616.5
2016-Apr-23 19:33N 50°29' W 000°23'1616.0
2016-Apr-23 18:33N 50°36' W 000°46'1312.7
2016-Apr-23 17:34N 50°43' W 001°02'1313.0
2016-Apr-23 16:33N 50°50' W 001°20'5 0.6
2016-Apr-23 08:26N 50°54' W 001°25'0 0.0
2016-Apr-23 07:08N 50°54' W 001°25'0 0.1
2016-Apr-23 06:33N 50°54' W 001°25'6 6.2
2016-Apr-23 05:34N 50°50' W 001°19'1010.5
2016-Apr-23 04:34N 50°44' W 001°04'9 9.0
2016-Apr-23 03:33N 50°36' W 000°59'10 9.5
2016-Apr-23 02:33N 50°31' W 001°11'2410.9
2016-Apr-23 00:23N 50°24' W 001°47'2513.3
2016-Apr-22 22:28N 50°17' W 002°26'1314.8
2016-Apr-22 21:34N 50°13' W 002°45'1514.8
2016-Apr-22 20:34N 50°09' W 003°07'1514.7
2016-Apr-22 19:34N 50°05' W 003°29'1514.8
2016-Apr-22 18:34N 49°56' W 003°48'1815.2
2016-Apr-22 17:25N 49°43' W 004°07'6316.4
2016-Apr-22 13:34N 48°58' W 005°14'61515.4
2016-Apr-20 21:33N 39°16' W 009°51'1615.6
2016-Apr-20 20:33N 39°00' W 009°51'1615.6
2016-Apr-20 19:33N 38°45' W 009°50'1515.5
2016-Apr-20 18:34N 38°30' W 009°47'1615.5
2016-Apr-20 17:32N 38°14' W 009°42'1515.3
2016-Apr-20 16:33N 37°60' W 009°37'1515.1
2016-Apr-20 15:33N 37°45' W 009°33'21912.9
2016-Apr-19 22:33N 35°57' W 005°35'1313.2
2016-Apr-19 21:33N 36°02' W 005°19'21714.2
2016-Apr-19 06:18N 37°14' W 001°04'1215.7
2016-Apr-19 05:33N 37°21' W 000°53'1515.1
2016-Apr-19 04:33N 37°32' W 000°39'  
Track history (hours):
 
Tides and Currents Weather Stations Pressure Air Temp Water Temp Dewpoint Dewpoint Depression Visibility Wind Speed Wind Dir Waves Ship Positions

Grande Portogallo

Last reported at 2016-Apr-29 04:33 UTC. Time now 2016-Apr-29 06:06 UTC.
Position N 51°16' E 004°13'.

Length 176 m; draft 8.7 m.

Type: Cargo ship. MMSI: 247065500.

Date/timePositionNaut miles runAvg speedWind from/ knotsBaromVisibWave heightAir tempDewpointWater temp
2016-Apr-29 04:33N 51°16' E 004°13'0 0.0
2016-Apr-29 03:33N 51°16' E 004°13'0 0.0
2016-Apr-29 02:33N 51°16' E 004°13'0 0.0
2016-Apr-29 01:33N 51°16' E 004°13'0 0.0
2016-Apr-29 00:30N 51°16' E 004°13'0 0.0
2016-Apr-28 23:33N 51°16' E 004°13'0 0.0
2016-Apr-28 22:33N 51°16' E 004°13'0 0.0
2016-Apr-28 21:30N 51°16' E 004°13'0 0.0
2016-Apr-28 20:33N 51°16' E 004°13'0 0.0
2016-Apr-28 19:33N 51°16' E 004°13'0 0.0
2016-Apr-28 18:33N 51°16' E 004°13'0 0.0
2016-Apr-28 17:33N 51°16' E 004°13'0 0.0
2016-Apr-28 16:33N 51°16' E 004°13'0 0.0
2016-Apr-28 15:33N 51°16' E 004°13'0 0.0
2016-Apr-28 14:33N 51°16' E 004°13'0 0.0
2016-Apr-28 13:33N 51°16' E 004°13'0 0.0
2016-Apr-28 12:33N 51°16' E 004°13'0 0.0
2016-Apr-28 11:33N 51°16' E 004°13'0 0.0
2016-Apr-28 10:30N 51°16' E 004°13'1 0.9
2016-Apr-28 09:33N 51°16' E 004°14'2 1.8
2016-Apr-28 08:33N 51°16' E 004°17'3 2.6
2016-Apr-28 07:34N 51°18' E 004°16'9 8.6
2016-Apr-28 06:33N 51°22' E 004°04'9 9.1
2016-Apr-28 05:33N 51°21' E 003°50'1110.8
2016-Apr-28 04:33N 51°26' E 003°35'1111.3
2016-Apr-28 03:33N 51°35' E 003°24'1110.3
2016-Apr-28 02:31N 51°43' E 003°13'7 1.5
2016-Apr-27 21:32N 51°46' E 003°02'94 8.3
2016-Apr-27 10:14N 53°07' E 004°19'3312.4
2016-Apr-27 07:32N 53°32' E 004°56'1313.1
2016-Apr-27 06:33N 53°37' E 005°15'1414.3
2016-Apr-27 05:33N 53°42' E 005°38'1514.9
2016-Apr-27 04:33N 53°47' E 006°02'1514.8
2016-Apr-27 03:33N 53°51' E 006°26'1514.7
2016-Apr-27 02:33N 53°54' E 006°50'1414.0
2016-Apr-27 01:33N 53°58' E 007°13'1413.5
2016-Apr-27 00:33N 54°01' E 007°36'1313.1
2016-Apr-26 23:33N 54°01' E 007°58'1312.8
2016-Apr-26 22:33N 53°60' E 008°20'1414.0
2016-Apr-26 21:33N 53°54' E 008°41'1313.5
2016-Apr-26 20:33N 53°52' E 009°04'1312.8
2016-Apr-26 19:34N 53°47' E 009°24'1515.1
2016-Apr-26 18:33N 53°34' E 009°39'1110.5
2016-Apr-26 17:33N 53°33' E 009°56'2 2.3
2016-Apr-26 16:32N 53°32' E 009°60'0 0.0
2016-Apr-26 15:32N 53°32' E 009°60'0 0.0
2016-Apr-26 14:32N 53°32' E 009°60'0 0.0
2016-Apr-26 13:32N 53°32' E 009°60'0 0.0
2016-Apr-26 12:32N 53°32' E 009°60'0 0.0
2016-Apr-26 11:32N 53°32' E 009°60'0 0.0
2016-Apr-26 10:32N 53°32' E 009°60'0 0.0
2016-Apr-26 09:32N 53°32' E 009°60'0 0.0
2016-Apr-26 08:32N 53°32' E 009°60'0 0.0
2016-Apr-26 07:32N 53°32' E 009°60'0 0.0
2016-Apr-26 06:32N 53°32' E 009°60'0 0.0
2016-Apr-26 05:32N 53°32' E 009°60'0 0.0
2016-Apr-26 04:32N 53°32' E 009°60'0 0.0
2016-Apr-26 03:32N 53°32' E 009°60'0 0.0
2016-Apr-26 02:32N 53°32' E 009°60'0 0.0
2016-Apr-26 01:32N 53°32' E 009°60'0 0.0
2016-Apr-26 00:32N 53°32' E 009°60'0 0.0
2016-Apr-25 23:32N 53°32' E 009°60'1 0.9
2016-Apr-25 22:33N 53°32' E 009°59'10 9.8
2016-Apr-25 21:33N 53°34' E 009°42'1111.0
2016-Apr-25 20:34N 53°42' E 009°30'1313.0
2016-Apr-25 19:33N 53°52' E 009°16'10 9.9
2016-Apr-25 18:34N 53°51' E 008°59'1111.0
2016-Apr-25 17:33N 53°54' E 008°41'1212.3
2016-Apr-25 16:33N 53°59' E 008°23'1413.8
2016-Apr-25 15:33N 53°59' E 007°59'1514.7
2016-Apr-25 14:33N 53°55' E 007°35'1514.9
2016-Apr-25 13:33N 53°52' E 007°10'1514.9
2016-Apr-25 12:33N 53°48' E 006°46'1515.5
2016-Apr-25 11:33N 53°44' E 006°21'1615.8
2016-Apr-25 10:33N 53°40' E 005°55'1616.1
2016-Apr-25 09:33N 53°35' E 005°29'1716.2
2016-Apr-25 08:31N 53°30' E 005°02'3015.3
2016-Apr-25 06:33N 53°08' E 004°28'1817.1
2016-Apr-25 05:31N 52°52' E 004°15'3517.5
2016-Apr-25 03:31N 52°25' E 003°38'2117.2
2016-Apr-25 02:19N 52°05' E 003°29'1315.2
2016-Apr-25 01:30N 51°53' E 003°22'1111.6
2016-Apr-25 00:32N 51°43' E 003°17'1414.5
2016-Apr-24 23:34N 51°30' E 003°28'9 8.8
2016-Apr-24 22:33N 51°28' E 003°41'0 0.0
2016-Apr-24 21:34N 51°28' E 003°41'0 0.0
2016-Apr-24 20:27N 51°28' E 003°41'0 0.0
2016-Apr-24 19:34N 51°28' E 003°41'0 0.0
2016-Apr-24 18:34N 51°28' E 003°41'0 0.0
2016-Apr-24 17:34N 51°28' E 003°41'0 0.0
2016-Apr-24 16:34N 51°28' E 003°41'0 0.0
2016-Apr-24 15:34N 51°28' E 003°41'0 0.0
2016-Apr-24 14:34N 51°28' E 003°41'0 0.0
2016-Apr-24 13:33N 51°28' E 003°41'0 0.0
2016-Apr-24 12:33N 51°28' E 003°41'0 0.0
2016-Apr-24 11:34N 51°28' E 003°41'0 0.0
2016-Apr-24 10:34N 51°28' E 003°41'0 0.0
2016-Apr-24 09:34N 51°28' E 003°41'0 0.0
2016-Apr-24 08:34N 51°28' E 003°41'3 3.0
2016-Apr-24 07:33N 51°26' E 003°37'1312.9
2016-Apr-24 06:33N 51°25' E 003°17'1514.6
2016-Apr-24 05:31N 51°25' E 002°52'1212.2
2016-Apr-24 04:30N 51°22' E 002°33'1212.5
2016-Apr-24 03:34N 51°17' E 002°16'1312.9
2016-Apr-24 02:34N 51°11' E 001°58'1313.3
2016-Apr-24 01:33N 51°02' E 001°42'6115.3
2016-Apr-23 21:33N 50°25' E 000°25'1716.8
2016-Apr-23 20:33N 50°21' W 000°00'1616.5
2016-Apr-23 19:33N 50°29' W 000°23'1616.0
2016-Apr-23 18:33N 50°36' W 000°46'1312.7
2016-Apr-23 17:34N 50°43' W 001°02'1313.0
2016-Apr-23 16:33N 50°50' W 001°20'5 0.6
2016-Apr-23 08:26N 50°54' W 001°25'0 0.0
2016-Apr-23 07:08N 50°54' W 001°25'0 0.1
2016-Apr-23 06:33N 50°54' W 001°25'6 6.2
2016-Apr-23 05:34N 50°50' W 001°19'1010.5
2016-Apr-23 04:34N 50°44' W 001°04'9 9.0
2016-Apr-23 03:33N 50°36' W 000°59'10 9.5
2016-Apr-23 02:33N 50°31' W 001°11'2410.9
2016-Apr-23 00:23N 50°24' W 001°47'2513.3
2016-Apr-22 22:28N 50°17' W 002°26'1314.8
2016-Apr-22 21:34N 50°13' W 002°45'1514.8
2016-Apr-22 20:34N 50°09' W 003°07'1514.7
2016-Apr-22 19:34N 50°05' W 003°29'1514.8
2016-Apr-22 18:34N 49°56' W 003°48'1815.2
2016-Apr-22 17:25N 49°43' W 004°07'6316.4
2016-Apr-22 13:34N 48°58' W 005°14'61515.4
2016-Apr-20 21:33N 39°16' W 009°51'1615.6
2016-Apr-20 20:33N 39°00' W 009°51'1615.6
2016-Apr-20 19:33N 38°45' W 009°50'1515.5
2016-Apr-20 18:34N 38°30' W 009°47'1615.5
2016-Apr-20 17:32N 38°14' W 009°42'1515.3
2016-Apr-20 16:33N 37°60' W 009°37'1515.1
2016-Apr-20 15:33N 37°45' W 009°33'21912.9
2016-Apr-19 22:33N 35°57' W 005°35'1313.2
2016-Apr-19 21:33N 36°02' W 005°19'21714.2
2016-Apr-19 06:18N 37°14' W 001°04'1215.7
2016-Apr-19 05:33N 37°21' W 000°53'1515.1
2016-Apr-19 04:33N 37°32' W 000°39'  

Dump ship's entire track history